sensor_id;sensor_type;location;lat;lon;timestamp;P1;durP1;ratioP1;P2;durP2;ratioP2
18659;SDS011;9459;50.254;19.014;2022-07-15T00:01:17;6.15;;;4.80;;
18659;SDS011;9459;50.254;19.014;2022-07-15T00:03:46;5.18;;;4.68;;
18659;SDS011;9459;50.254;19.014;2022-07-15T00:06:14;5.80;;;4.70;;
18659;SDS011;9459;50.254;19.014;2022-07-15T00:08:42;5.88;;;4.97;;
18659;SDS011;9459;50.254;19.014;2022-07-15T00:11:11;6.30;;;5.30;;
18659;SDS011;9459;50.254;19.014;2022-07-15T00:13:40;6.68;;;4.70;;
18659;SDS011;9459;50.254;19.014;2022-07-15T00:16:08;7.07;;;5.07;;
18659;SDS011;9459;50.254;19.014;2022-07-15T00:18:38;7.68;;;5.38;;
18659;SDS011;9459;50.254;19.014;2022-07-15T00:21:06;6.32;;;5.45;;
18659;SDS011;9459;50.254;19.014;2022-07-15T00:23:35;6.40;;;5.80;;
18659;SDS011;9459;50.254;19.014;2022-07-15T00:26:03;7.05;;;5.70;;
18659;SDS011;9459;50.254;19.014;2022-07-15T00:28:32;6.53;;;5.93;;
18659;SDS011;9459;50.254;19.014;2022-07-15T00:31:00;6.43;;;5.57;;
18659;SDS011;9459;50.254;19.014;2022-07-15T00:33:28;7.90;;;6.53;;
18659;SDS011;9459;50.254;19.014;2022-07-15T00:35:58;6.85;;;6.15;;
18659;SDS011;9459;50.254;19.014;2022-07-15T00:38:26;8.90;;;6.38;;
18659;SDS011;9459;50.254;19.014;2022-07-15T00:40:55;6.55;;;5.63;;
18659;SDS011;9459;50.254;19.014;2022-07-15T00:43:23;7.07;;;6.32;;
18659;SDS011;9459;50.254;19.014;2022-07-15T00:45:51;6.60;;;5.90;;
18659;SDS011;9459;50.254;19.014;2022-07-15T00:48:20;7.45;;;6.32;;
18659;SDS011;9459;50.254;19.014;2022-07-15T00:50:49;8.13;;;6.50;;
18659;SDS011;9459;50.254;19.014;2022-07-15T00:53:19;8.25;;;7.05;;
18659;SDS011;9459;50.254;19.014;2022-07-15T00:55:48;9.85;;;7.22;;
18659;SDS011;9459;50.254;19.014;2022-07-15T00:58:18;8.55;;;7.65;;
18659;SDS011;9459;50.254;19.014;2022-07-15T01:00:48;9.40;;;8.30;;
18659;SDS011;9459;50.254;19.014;2022-07-15T01:03:19;8.40;;;7.47;;
18659;SDS011;9459;50.254;19.014;2022-07-15T01:05:48;9.48;;;8.55;;
18659;SDS011;9459;50.254;19.014;2022-07-15T01:08:16;8.75;;;7.90;;
18659;SDS011;9459;50.254;19.014;2022-07-15T01:10:47;9.57;;;7.53;;
18659;SDS011;9459;50.254;19.014;2022-07-15T01:13:16;8.05;;;7.25;;
18659;SDS011;9459;50.254;19.014;2022-07-15T01:15:45;8.60;;;7.70;;
18659;SDS011;9459;50.254;19.014;2022-07-15T01:18:14;7.10;;;6.40;;
18659;SDS011;9459;50.254;19.014;2022-07-15T01:20:44;7.38;;;6.68;;
18659;SDS011;9459;50.254;19.014;2022-07-15T01:23:13;8.70;;;6.90;;
18659;SDS011;9459;50.254;19.014;2022-07-15T01:25:42;7.60;;;6.88;;
18659;SDS011;9459;50.254;19.014;2022-07-15T01:28:12;8.13;;;7.32;;
18659;SDS011;9459;50.254;19.014;2022-07-15T01:30:40;7.80;;;6.80;;
18659;SDS011;9459;50.254;19.014;2022-07-15T01:33:09;8.18;;;7.43;;
18659;SDS011;9459;50.254;19.014;2022-07-15T01:35:37;8.50;;;7.03;;
18659;SDS011;9459;50.254;19.014;2022-07-15T01:38:07;10.05;;;8.13;;
18659;SDS011;9459;50.254;19.014;2022-07-15T01:40:35;8.32;;;7.55;;
18659;SDS011;9459;50.254;19.014;2022-07-15T01:43:04;9.57;;;7.65;;
18659;SDS011;9459;50.254;19.014;2022-07-15T01:45:33;8.02;;;7.32;;
18659;SDS011;9459;50.254;19.014;2022-07-15T01:48:01;8.82;;;8.02;;
18659;SDS011;9459;50.254;19.014;2022-07-15T01:50:29;9.30;;;8.27;;
18659;SDS011;9459;50.254;19.014;2022-07-15T01:52:57;9.38;;;8.05;;
18659;SDS011;9459;50.254;19.014;2022-07-15T01:55:27;9.80;;;8.80;;
18659;SDS011;9459;50.254;19.014;2022-07-15T01:57:55;8.93;;;8.13;;
18659;SDS011;9459;50.254;19.014;2022-07-15T02:00:23;11.77;;;8.85;;
18659;SDS011;9459;50.254;19.014;2022-07-15T02:02:52;10.10;;;8.90;;
18659;SDS011;9459;50.254;19.014;2022-07-15T02:05:20;10.55;;;8.23;;
18659;SDS011;9459;50.254;19.014;2022-07-15T02:07:48;10.70;;;8.93;;
18659;SDS011;9459;50.254;19.014;2022-07-15T02:10:17;9.25;;;8.35;;
18659;SDS011;9459;50.254;19.014;2022-07-15T02:12:46;11.13;;;10.02;;
18659;SDS011;9459;50.254;19.014;2022-07-15T02:15:14;10.40;;;9.40;;
18659;SDS011;9459;50.254;19.014;2022-07-15T02:17:43;10.48;;;9.27;;
18659;SDS011;9459;50.254;19.014;2022-07-15T02:20:11;9.55;;;8.55;;
18659;SDS011;9459;50.254;19.014;2022-07-15T02:22:39;11.30;;;9.63;;
18659;SDS011;9459;50.254;19.014;2022-07-15T02:25:08;10.90;;;9.88;;
18659;SDS011;9459;50.254;19.014;2022-07-15T02:27:36;10.50;;;9.35;;
18659;SDS011;9459;50.254;19.014;2022-07-15T02:30:07;9.60;;;8.68;;
18659;SDS011;9459;50.254;19.014;2022-07-15T02:32:36;11.32;;;8.40;;
18659;SDS011;9459;50.254;19.014;2022-07-15T02:35:04;9.48;;;7.90;;
18659;SDS011;9459;50.254;19.014;2022-07-15T02:37:33;8.00;;;7.22;;
18659;SDS011;9459;50.254;19.014;2022-07-15T02:40:02;8.88;;;7.95;;
18659;SDS011;9459;50.254;19.014;2022-07-15T02:42:31;11.35;;;9.10;;
18659;SDS011;9459;50.254;19.014;2022-07-15T02:44:59;10.82;;;8.40;;
18659;SDS011;9459;50.254;19.014;2022-07-15T02:47:28;12.85;;;7.95;;
18659;SDS011;9459;50.254;19.014;2022-07-15T02:49:56;11.15;;;8.23;;
18659;SDS011;9459;50.254;19.014;2022-07-15T02:52:24;11.68;;;8.85;;
18659;SDS011;9459;50.254;19.014;2022-07-15T02:54:53;10.98;;;9.10;;
18659;SDS011;9459;50.254;19.014;2022-07-15T02:57:21;9.48;;;8.50;;
18659;SDS011;9459;50.254;19.014;2022-07-15T02:59:49;11.10;;;8.93;;
18659;SDS011;9459;50.254;19.014;2022-07-15T03:02:17;9.60;;;8.38;;
18659;SDS011;9459;50.254;19.014;2022-07-15T03:04:47;10.23;;;8.02;;
18659;SDS011;9459;50.254;19.014;2022-07-15T03:07:15;10.13;;;7.00;;
18659;SDS011;9459;50.254;19.014;2022-07-15T03:09:43;8.85;;;6.80;;
18659;SDS011;9459;50.254;19.014;2022-07-15T03:12:11;9.57;;;7.00;;
18659;SDS011;9459;50.254;19.014;2022-07-15T03:14:40;14.38;;;6.97;;
18659;SDS011;9459;50.254;19.014;2022-07-15T03:17:08;15.30;;;7.43;;
18659;SDS011;9459;50.254;19.014;2022-07-15T03:19:37;11.30;;;8.27;;
18659;SDS011;9459;50.254;19.014;2022-07-15T03:22:06;10.90;;;7.45;;
18659;SDS011;9459;50.254;19.014;2022-07-15T03:24:35;11.07;;;7.68;;
18659;SDS011;9459;50.254;19.014;2022-07-15T03:27:03;9.57;;;7.25;;
18659;SDS011;9459;50.254;19.014;2022-07-15T03:29:32;10.50;;;7.75;;
18659;SDS011;9459;50.254;19.014;2022-07-15T03:32:00;10.00;;;7.00;;
18659;SDS011;9459;50.254;19.014;2022-07-15T03:34:28;9.68;;;7.07;;
18659;SDS011;9459;50.254;19.014;2022-07-15T03:36:56;9.50;;;7.57;;
18659;SDS011;9459;50.254;19.014;2022-07-15T03:39:27;10.00;;;7.03;;
18659;SDS011;9459;50.254;19.014;2022-07-15T03:41:55;11.85;;;7.30;;
18659;SDS011;9459;50.254;19.014;2022-07-15T03:44:24;8.07;;;5.82;;
18659;SDS011;9459;50.254;19.014;2022-07-15T03:46:52;10.10;;;6.85;;
18659;SDS011;9459;50.254;19.014;2022-07-15T03:49:20;11.30;;;7.18;;
18659;SDS011;9459;50.254;19.014;2022-07-15T03:51:49;13.88;;;6.70;;
18659;SDS011;9459;50.254;19.014;2022-07-15T03:54:17;9.52;;;5.82;;
18659;SDS011;9459;50.254;19.014;2022-07-15T03:56:47;8.60;;;4.97;;
18659;SDS011;9459;50.254;19.014;2022-07-15T03:59:16;9.32;;;4.80;;
18659;SDS011;9459;50.254;19.014;2022-07-15T04:01:47;6.57;;;4.22;;
18659;SDS011;9459;50.254;19.014;2022-07-15T04:04:16;8.75;;;4.38;;
18659;SDS011;9459;50.254;19.014;2022-07-15T04:06:44;7.13;;;4.60;;
18659;SDS011;9459;50.254;19.014;2022-07-15T04:09:13;6.72;;;4.05;;
18659;SDS011;9459;50.254;19.014;2022-07-15T04:11:41;7.68;;;3.97;;
18659;SDS011;9459;50.254;19.014;2022-07-15T04:14:11;5.90;;;4.03;;
18659;SDS011;9459;50.254;19.014;2022-07-15T04:16:41;5.82;;;4.28;;
18659;SDS011;9459;50.254;19.014;2022-07-15T04:19:09;7.57;;;3.78;;
18659;SDS011;9459;50.254;19.014;2022-07-15T04:21:37;5.18;;;3.45;;
18659;SDS011;9459;50.254;19.014;2022-07-15T04:24:06;5.28;;;3.92;;
18659;SDS011;9459;50.254;19.014;2022-07-15T04:26:34;8.48;;;5.60;;
18659;SDS011;9459;50.254;19.014;2022-07-15T04:29:02;7.03;;;4.80;;
18659;SDS011;9459;50.254;19.014;2022-07-15T04:31:32;5.65;;;3.78;;
18659;SDS011;9459;50.254;19.014;2022-07-15T04:34:00;9.25;;;5.97;;
18659;SDS011;9459;50.254;19.014;2022-07-15T04:36:28;9.35;;;4.72;;
18659;SDS011;9459;50.254;19.014;2022-07-15T04:38:57;17.48;;;11.98;;
18659;SDS011;9459;50.254;19.014;2022-07-15T04:41:25;7.47;;;4.90;;
18659;SDS011;9459;50.254;19.014;2022-07-15T04:43:53;8.13;;;4.97;;
18659;SDS011;9459;50.254;19.014;2022-07-15T04:46:21;6.82;;;4.88;;
18659;SDS011;9459;50.254;19.014;2022-07-15T04:48:51;9.88;;;5.03;;
18659;SDS011;9459;50.254;19.014;2022-07-15T04:51:37;7.25;;;4.47;;
18659;SDS011;9459;50.254;19.014;2022-07-15T04:54:05;8.80;;;4.90;;
18659;SDS011;9459;50.254;19.014;2022-07-15T04:56:34;7.75;;;4.00;;
18659;SDS011;9459;50.254;19.014;2022-07-15T04:59:02;14.05;;;9.50;;
18659;SDS011;9459;50.254;19.014;2022-07-15T05:01:31;11.13;;;5.68;;
18659;SDS011;9459;50.254;19.014;2022-07-15T05:04:00;7.63;;;4.47;;
18659;SDS011;9459;50.254;19.014;2022-07-15T05:06:29;6.55;;;4.65;;
18659;SDS011;9459;50.254;19.014;2022-07-15T05:08:57;8.57;;;4.63;;
18659;SDS011;9459;50.254;19.014;2022-07-15T05:11:26;7.30;;;4.50;;
18659;SDS011;9459;50.254;19.014;2022-07-15T05:13:55;6.78;;;4.00;;
18659;SDS011;9459;50.254;19.014;2022-07-15T05:16:23;5.60;;;3.90;;
18659;SDS011;9459;50.254;19.014;2022-07-15T05:18:51;5.97;;;4.00;;
18659;SDS011;9459;50.254;19.014;2022-07-15T05:21:21;7.30;;;4.22;;
18659;SDS011;9459;50.254;19.014;2022-07-15T05:23:51;5.05;;;3.80;;
18659;SDS011;9459;50.254;19.014;2022-07-15T05:26:40;8.55;;;4.55;;
18659;SDS011;9459;50.254;19.014;2022-07-15T05:29:11;8.98;;;3.65;;
18659;SDS011;9459;50.254;19.014;2022-07-15T05:31:39;7.97;;;4.00;;
18659;SDS011;9459;50.254;19.014;2022-07-15T05:34:08;4.28;;;2.30;;
18659;SDS011;9459;50.254;19.014;2022-07-15T05:36:37;5.20;;;2.15;;
18659;SDS011;9459;50.254;19.014;2022-07-15T05:39:06;6.25;;;2.00;;
18659;SDS011;9459;50.254;19.014;2022-07-15T05:41:34;7.88;;;2.10;;
18659;SDS011;9459;50.254;19.014;2022-07-15T05:44:03;3.85;;;1.73;;
18659;SDS011;9459;50.254;19.014;2022-07-15T05:46:32;5.93;;;2.47;;
18659;SDS011;9459;50.254;19.014;2022-07-15T05:49:00;5.15;;;2.08;;
18659;SDS011;9459;50.254;19.014;2022-07-15T05:51:28;5.85;;;1.90;;
18659;SDS011;9459;50.254;19.014;2022-07-15T05:53:58;3.08;;;1.70;;
18659;SDS011;9459;50.254;19.014;2022-07-15T05:56:26;5.55;;;2.50;;
18659;SDS011;9459;50.254;19.014;2022-07-15T05:58:55;8.23;;;2.60;;
18659;SDS011;9459;50.254;19.014;2022-07-15T06:01:23;6.95;;;3.45;;
18659;SDS011;9459;50.254;19.014;2022-07-15T06:03:52;7.60;;;2.70;;
18659;SDS011;9459;50.254;19.014;2022-07-15T06:06:20;9.15;;;2.45;;
18659;SDS011;9459;50.254;19.014;2022-07-15T06:08:48;8.35;;;2.90;;
18659;SDS011;9459;50.254;19.014;2022-07-15T06:11:18;5.00;;;2.20;;
18659;SDS011;9459;50.254;19.014;2022-07-15T06:13:46;4.28;;;2.15;;
18659;SDS011;9459;50.254;19.014;2022-07-15T06:16:15;7.38;;;2.30;;
18659;SDS011;9459;50.254;19.014;2022-07-15T06:18:43;4.50;;;2.00;;
18659;SDS011;9459;50.254;19.014;2022-07-15T06:21:12;6.57;;;2.30;;
18659;SDS011;9459;50.254;19.014;2022-07-15T06:23:41;4.25;;;2.33;;
18659;SDS011;9459;50.254;19.014;2022-07-15T06:26:09;2.97;;;1.35;;
18659;SDS011;9459;50.254;19.014;2022-07-15T06:28:38;5.82;;;2.15;;
18659;SDS011;9459;50.254;19.014;2022-07-15T06:31:14;5.88;;;1.77;;
18659;SDS011;9459;50.254;19.014;2022-07-15T06:33:43;5.97;;;1.70;;
18659;SDS011;9459;50.254;19.014;2022-07-15T06:36:11;4.40;;;1.90;;
18659;SDS011;9459;50.254;19.014;2022-07-15T06:38:40;3.33;;;2.13;;
18659;SDS011;9459;50.254;19.014;2022-07-15T06:41:08;5.28;;;1.80;;
18659;SDS011;9459;50.254;19.014;2022-07-15T06:43:36;3.60;;;1.67;;
18659;SDS011;9459;50.254;19.014;2022-07-15T06:46:06;3.53;;;1.95;;
18659;SDS011;9459;50.254;19.014;2022-07-15T06:48:35;3.80;;;1.58;;
18659;SDS011;9459;50.254;19.014;2022-07-15T06:51:05;6.15;;;1.60;;
18659;SDS011;9459;50.254;19.014;2022-07-15T06:53:34;4.63;;;1.60;;
18659;SDS011;9459;50.254;19.014;2022-07-15T06:56:02;6.28;;;2.22;;
18659;SDS011;9459;50.254;19.014;2022-07-15T06:58:31;6.70;;;2.05;;
18659;SDS011;9459;50.254;19.014;2022-07-15T07:01:01;4.63;;;2.13;;
18659;SDS011;9459;50.254;19.014;2022-07-15T07:03:29;6.38;;;1.95;;
18659;SDS011;9459;50.254;19.014;2022-07-15T07:06:18;4.45;;;2.00;;
18659;SDS011;9459;50.254;19.014;2022-07-15T07:08:46;5.38;;;1.90;;
18659;SDS011;9459;50.254;19.014;2022-07-15T07:11:15;5.63;;;1.70;;
18659;SDS011;9459;50.254;19.014;2022-07-15T07:13:46;6.57;;;2.42;;
18659;SDS011;9459;50.254;19.014;2022-07-15T07:16:16;3.67;;;1.80;;
18659;SDS011;9459;50.254;19.014;2022-07-15T07:18:45;4.35;;;1.80;;
18659;SDS011;9459;50.254;19.014;2022-07-15T07:21:14;4.05;;;1.70;;
18659;SDS011;9459;50.254;19.014;2022-07-15T07:23:43;3.20;;;1.70;;
18659;SDS011;9459;50.254;19.014;2022-07-15T07:26:12;5.35;;;1.60;;
18659;SDS011;9459;50.254;19.014;2022-07-15T07:28:41;3.72;;;1.27;;
18659;SDS011;9459;50.254;19.014;2022-07-15T07:31:10;4.78;;;1.52;;
18659;SDS011;9459;50.254;19.014;2022-07-15T07:33:41;2.65;;;1.20;;
18659;SDS011;9459;50.254;19.014;2022-07-15T07:36:10;2.72;;;1.17;;
18659;SDS011;9459;50.254;19.014;2022-07-15T07:38:38;2.20;;;1.10;;
18659;SDS011;9459;50.254;19.014;2022-07-15T07:41:12;5.60;;;1.10;;
18659;SDS011;9459;50.254;19.014;2022-07-15T07:43:41;3.08;;;1.10;;
18659;SDS011;9459;50.254;19.014;2022-07-15T07:46:10;2.03;;;1.10;;
18659;SDS011;9459;50.254;19.014;2022-07-15T07:48:40;3.60;;;1.30;;
18659;SDS011;9459;50.254;19.014;2022-07-15T07:51:09;5.32;;;1.25;;
18659;SDS011;9459;50.254;19.014;2022-07-15T07:53:37;3.17;;;1.10;;
18659;SDS011;9459;50.254;19.014;2022-07-15T07:56:05;1.33;;;0.82;;
18659;SDS011;9459;50.254;19.014;2022-07-15T07:58:34;2.78;;;1.08;;
18659;SDS011;9459;50.254;19.014;2022-07-15T08:01:02;4.13;;;1.08;;
18659;SDS011;9459;50.254;19.014;2022-07-15T08:03:31;1.83;;;1.10;;
18659;SDS011;9459;50.254;19.014;2022-07-15T08:06:00;2.15;;;1.10;;
18659;SDS011;9459;50.254;19.014;2022-07-15T08:08:29;3.63;;;1.25;;
18659;SDS011;9459;50.254;19.014;2022-07-15T08:10:57;3.03;;;1.23;;
18659;SDS011;9459;50.254;19.014;2022-07-15T08:13:26;2.55;;;0.98;;
18659;SDS011;9459;50.254;19.014;2022-07-15T08:15:56;1.98;;;0.80;;
18659;SDS011;9459;50.254;19.014;2022-07-15T08:18:34;2.45;;;1.05;;
18659;SDS011;9459;50.254;19.014;2022-07-15T08:21:04;1.10;;;0.80;;
18659;SDS011;9459;50.254;19.014;2022-07-15T08:26:01;2.22;;;1.00;;
18659;SDS011;9459;50.254;19.014;2022-07-15T08:28:31;0.90;;;0.70;;
18659;SDS011;9459;50.254;19.014;2022-07-15T08:31:19;2.88;;;1.00;;
18659;SDS011;9459;50.254;19.014;2022-07-15T08:33:49;4.63;;;1.08;;
18659;SDS011;9459;50.254;19.014;2022-07-15T08:36:19;2.53;;;0.80;;
18659;SDS011;9459;50.254;19.014;2022-07-15T08:38:48;2.10;;;0.90;;
18659;SDS011;9459;50.254;19.014;2022-07-15T08:41:16;2.42;;;0.90;;
18659;SDS011;9459;50.254;19.014;2022-07-15T08:43:46;1.38;;;0.70;;
18659;SDS011;9459;50.254;19.014;2022-07-15T08:46:14;2.15;;;0.80;;
18659;SDS011;9459;50.254;19.014;2022-07-15T08:48:45;4.87;;;1.40;;
18659;SDS011;9459;50.254;19.014;2022-07-15T08:51:20;2.35;;;0.85;;
18659;SDS011;9459;50.254;19.014;2022-07-15T08:53:51;1.77;;;0.88;;
18659;SDS011;9459;50.254;19.014;2022-07-15T08:56:19;4.20;;;1.02;;
18659;SDS011;9459;50.254;19.014;2022-07-15T08:58:48;5.40;;;1.38;;
18659;SDS011;9459;50.254;19.014;2022-07-15T09:01:27;8.05;;;1.42;;
18659;SDS011;9459;50.254;19.014;2022-07-15T09:03:55;3.20;;;1.08;;
18659;SDS011;9459;50.254;19.014;2022-07-15T09:06:33;8.05;;;1.25;;
18659;SDS011;9459;50.254;19.014;2022-07-15T09:11:57;3.28;;;1.17;;
18659;SDS011;9459;50.254;19.014;2022-07-15T09:14:40;4.50;;;1.10;;
18659;SDS011;9459;50.254;19.014;2022-07-15T09:17:23;2.53;;;1.00;;
18659;SDS011;9459;50.254;19.014;2022-07-15T09:20:04;4.65;;;0.88;;
18659;SDS011;9459;50.254;19.014;2022-07-15T09:22:48;4.13;;;1.58;;
18659;SDS011;9459;50.254;19.014;2022-07-15T09:25:18;3.70;;;0.98;;
18659;SDS011;9459;50.254;19.014;2022-07-15T09:27:48;2.03;;;0.90;;
18659;SDS011;9459;50.254;19.014;2022-07-15T09:30:17;2.53;;;1.23;;
18659;SDS011;9459;50.254;19.014;2022-07-15T09:33:05;2.50;;;0.90;;
18659;SDS011;9459;50.254;19.014;2022-07-15T09:35:57;1.52;;;1.00;;
18659;SDS011;9459;50.254;19.014;2022-07-15T09:38:48;5.50;;;1.00;;
18659;SDS011;9459;50.254;19.014;2022-07-15T09:41:20;2.70;;;0.90;;
18659;SDS011;9459;50.254;19.014;2022-07-15T09:43:54;5.40;;;2.33;;
18659;SDS011;9459;50.254;19.014;2022-07-15T09:48:53;1.27;;;0.65;;
18659;SDS011;9459;50.254;19.014;2022-07-15T09:51:21;2.95;;;1.02;;
18659;SDS011;9459;50.254;19.014;2022-07-15T09:53:52;2.40;;;1.05;;
18659;SDS011;9459;50.254;19.014;2022-07-15T09:56:27;2.75;;;0.60;;
18659;SDS011;9459;50.254;19.014;2022-07-15T09:58:56;2.63;;;0.90;;
18659;SDS011;9459;50.254;19.014;2022-07-15T10:01:24;2.03;;;0.75;;
18659;SDS011;9459;50.254;19.014;2022-07-15T10:03:53;4.63;;;1.35;;
18659;SDS011;9459;50.254;19.014;2022-07-15T10:06:21;2.97;;;0.70;;
18659;SDS011;9459;50.254;19.014;2022-07-15T10:08:55;4.47;;;1.00;;
18659;SDS011;9459;50.254;19.014;2022-07-15T10:11:24;3.28;;;1.00;;
18659;SDS011;9459;50.254;19.014;2022-07-15T10:20:09;2.83;;;0.60;;
18659;SDS011;9459;50.254;19.014;2022-07-15T10:22:48;1.67;;;0.80;;
18659;SDS011;9459;50.254;19.014;2022-07-15T10:25:25;0.93;;;0.63;;
18659;SDS011;9459;50.254;19.014;2022-07-15T10:28:02;1.30;;;0.75;;
18659;SDS011;9459;50.254;19.014;2022-07-15T10:30:32;5.63;;;0.95;;
18659;SDS011;9459;50.254;19.014;2022-07-15T10:35:48;2.78;;;0.82;;
18659;SDS011;9459;50.254;19.014;2022-07-15T10:38:25;1.00;;;0.60;;
18659;SDS011;9459;50.254;19.014;2022-07-15T10:41:01;3.20;;;0.90;;
18659;SDS011;9459;50.254;19.014;2022-07-15T10:43:41;2.30;;;1.00;;
18659;SDS011;9459;50.254;19.014;2022-07-15T10:46:18;1.58;;;0.90;;
18659;SDS011;9459;50.254;19.014;2022-07-15T10:48:52;2.97;;;0.80;;
18659;SDS011;9459;50.254;19.014;2022-07-15T10:51:44;4.38;;;1.20;;
18659;SDS011;9459;50.254;19.014;2022-07-15T10:57:09;2.53;;;0.98;;
18659;SDS011;9459;50.254;19.014;2022-07-15T10:59:47;1.50;;;0.80;;
18659;SDS011;9459;50.254;19.014;2022-07-15T11:02:19;5.60;;;1.02;;
18659;SDS011;9459;50.254;19.014;2022-07-15T11:04:50;3.55;;;0.95;;
18659;SDS011;9459;50.254;19.014;2022-07-15T11:07:28;2.72;;;0.90;;
18659;SDS011;9459;50.254;19.014;2022-07-15T11:12:58;1.98;;;0.88;;
18659;SDS011;9459;50.254;19.014;2022-07-15T11:15:31;1.63;;;0.70;;
18659;SDS011;9459;50.254;19.014;2022-07-15T11:18:00;4.97;;;1.45;;
18659;SDS011;9459;50.254;19.014;2022-07-15T11:20:36;1.45;;;0.80;;
18659;SDS011;9459;50.254;19.014;2022-07-15T11:23:06;2.88;;;0.88;;
18659;SDS011;9459;50.254;19.014;2022-07-15T11:25:36;2.20;;;0.80;;
18659;SDS011;9459;50.254;19.014;2022-07-15T11:28:09;1.42;;;0.80;;
18659;SDS011;9459;50.254;19.014;2022-07-15T11:30:39;2.28;;;0.90;;
18659;SDS011;9459;50.254;19.014;2022-07-15T11:35:44;3.17;;;0.77;;
18659;SDS011;9459;50.254;19.014;2022-07-15T11:38:16;1.92;;;0.70;;
18659;SDS011;9459;50.254;19.014;2022-07-15T11:40:47;1.50;;;0.70;;
18659;SDS011;9459;50.254;19.014;2022-07-15T11:43:36;2.42;;;0.75;;
18659;SDS011;9459;50.254;19.014;2022-07-15T11:46:33;3.65;;;1.08;;
18659;SDS011;9459;50.254;19.014;2022-07-15T11:49:16;3.15;;;0.70;;
18659;SDS011;9459;50.254;19.014;2022-07-15T11:51:52;3.50;;;0.90;;
18659;SDS011;9459;50.254;19.014;2022-07-15T11:54:21;1.35;;;0.73;;
18659;SDS011;9459;50.254;19.014;2022-07-15T11:56:55;3.72;;;0.82;;
18659;SDS011;9459;50.254;19.014;2022-07-15T11:59:25;2.67;;;0.80;;
18659;SDS011;9459;50.254;19.014;2022-07-15T12:01:59;2.13;;;0.80;;
18659;SDS011;9459;50.254;19.014;2022-07-15T12:04:27;2.05;;;1.00;;
18659;SDS011;9459;50.254;19.014;2022-07-15T12:06:56;1.35;;;0.82;;
18659;SDS011;9459;50.254;19.014;2022-07-15T12:09:25;2.50;;;0.88;;
18659;SDS011;9459;50.254;19.014;2022-07-15T12:11:54;1.52;;;0.70;;
18659;SDS011;9459;50.254;19.014;2022-07-15T12:14:30;1.85;;;0.80;;
18659;SDS011;9459;50.254;19.014;2022-07-15T12:16:59;1.80;;;0.73;;
18659;SDS011;9459;50.254;19.014;2022-07-15T12:19:28;1.48;;;0.70;;
18659;SDS011;9459;50.254;19.014;2022-07-15T12:21:58;1.60;;;0.70;;
18659;SDS011;9459;50.254;19.014;2022-07-15T12:24:36;4.05;;;0.90;;
18659;SDS011;9459;50.254;19.014;2022-07-15T12:27:08;3.47;;;1.05;;
18659;SDS011;9459;50.254;19.014;2022-07-15T12:29:38;3.25;;;1.15;;
18659;SDS011;9459;50.254;19.014;2022-07-15T12:32:27;2.03;;;0.60;;
18659;SDS011;9459;50.254;19.014;2022-07-15T12:34:55;2.67;;;0.70;;
18659;SDS011;9459;50.254;19.014;2022-07-15T12:37:25;4.68;;;0.82;;
18659;SDS011;9459;50.254;19.014;2022-07-15T12:39:55;2.93;;;0.80;;
18659;SDS011;9459;50.254;19.014;2022-07-15T12:42:25;1.67;;;0.80;;
18659;SDS011;9459;50.254;19.014;2022-07-15T12:45:11;4.82;;;0.95;;
18659;SDS011;9459;50.254;19.014;2022-07-15T12:47:57;2.88;;;0.90;;
18659;SDS011;9459;50.254;19.014;2022-07-15T12:50:29;1.50;;;0.60;;
18659;SDS011;9459;50.254;19.014;2022-07-15T12:52:58;1.65;;;0.80;;
18659;SDS011;9459;50.254;19.014;2022-07-15T12:55:27;1.73;;;0.80;;
18659;SDS011;9459;50.254;19.014;2022-07-15T12:58:03;1.65;;;0.70;;
18659;SDS011;9459;50.254;19.014;2022-07-15T13:00:34;3.10;;;0.77;;
18659;SDS011;9459;50.254;19.014;2022-07-15T13:03:04;3.05;;;0.88;;
18659;SDS011;9459;50.254;19.014;2022-07-15T13:08:05;0.80;;;0.57;;
18659;SDS011;9459;50.254;19.014;2022-07-15T13:10:34;2.10;;;0.90;;
18659;SDS011;9459;50.254;19.014;2022-07-15T13:13:02;4.18;;;0.85;;
18659;SDS011;9459;50.254;19.014;2022-07-15T13:15:32;2.97;;;0.88;;
18659;SDS011;9459;50.254;19.014;2022-07-15T13:18:02;2.78;;;0.73;;
18659;SDS011;9459;50.254;19.014;2022-07-15T13:20:31;1.90;;;0.93;;
18659;SDS011;9459;50.254;19.014;2022-07-15T13:22:59;1.42;;;0.80;;
18659;SDS011;9459;50.254;19.014;2022-07-15T13:25:28;2.65;;;0.98;;
18659;SDS011;9459;50.254;19.014;2022-07-15T13:27:57;1.92;;;0.77;;
18659;SDS011;9459;50.254;19.014;2022-07-15T13:30:26;1.80;;;0.65;;
18659;SDS011;9459;50.254;19.014;2022-07-15T13:32:56;2.28;;;0.80;;
18659;SDS011;9459;50.254;19.014;2022-07-15T13:35:24;2.13;;;0.80;;
18659;SDS011;9459;50.254;19.014;2022-07-15T13:37:53;1.75;;;0.70;;
18659;SDS011;9459;50.254;19.014;2022-07-15T13:40:21;1.52;;;0.70;;
18659;SDS011;9459;50.254;19.014;2022-07-15T13:42:49;2.53;;;0.90;;
18659;SDS011;9459;50.254;19.014;2022-07-15T13:45:19;2.70;;;0.80;;
18659;SDS011;9459;50.254;19.014;2022-07-15T13:47:47;1.35;;;0.60;;
18659;SDS011;9459;50.254;19.014;2022-07-15T13:50:17;1.10;;;0.70;;
18659;SDS011;9459;50.254;19.014;2022-07-15T13:53:03;1.55;;;0.80;;
18659;SDS011;9459;50.254;19.014;2022-07-15T13:55:32;1.30;;;0.70;;
18659;SDS011;9459;50.254;19.014;2022-07-15T13:58:01;1.38;;;0.80;;
18659;SDS011;9459;50.254;19.014;2022-07-15T14:00:30;1.92;;;0.95;;
18659;SDS011;9459;50.254;19.014;2022-07-15T14:02:58;2.53;;;1.00;;
18659;SDS011;9459;50.254;19.014;2022-07-15T14:05:28;1.35;;;0.70;;
18659;SDS011;9459;50.254;19.014;2022-07-15T14:07:57;1.25;;;0.63;;
18659;SDS011;9459;50.254;19.014;2022-07-15T14:10:25;1.25;;;0.70;;
18659;SDS011;9459;50.254;19.014;2022-07-15T14:12:53;1.30;;;0.52;;
18659;SDS011;9459;50.254;19.014;2022-07-15T14:15:22;0.95;;;0.60;;
18659;SDS011;9459;50.254;19.014;2022-07-15T14:18:00;3.30;;;0.65;;
18659;SDS011;9459;50.254;19.014;2022-07-15T14:20:29;1.80;;;0.77;;
18659;SDS011;9459;50.254;19.014;2022-07-15T14:22:59;2.42;;;0.90;;
18659;SDS011;9459;50.254;19.014;2022-07-15T14:25:28;1.38;;;0.70;;
18659;SDS011;9459;50.254;19.014;2022-07-15T14:27:57;3.10;;;0.80;;
18659;SDS011;9459;50.254;19.014;2022-07-15T14:30:26;1.55;;;0.75;;
18659;SDS011;9459;50.254;19.014;2022-07-15T14:32:54;2.20;;;1.00;;
18659;SDS011;9459;50.254;19.014;2022-07-15T14:35:23;2.50;;;1.08;;
18659;SDS011;9459;50.254;19.014;2022-07-15T14:37:53;2.50;;;0.80;;
18659;SDS011;9459;50.254;19.014;2022-07-15T14:40:21;2.63;;;0.73;;
18659;SDS011;9459;50.254;19.014;2022-07-15T14:42:50;1.92;;;0.93;;
18659;SDS011;9459;50.254;19.014;2022-07-15T14:45:18;1.73;;;0.80;;
18659;SDS011;9459;50.254;19.014;2022-07-15T14:47:46;3.03;;;0.90;;
18659;SDS011;9459;50.254;19.014;2022-07-15T14:50:15;2.35;;;0.70;;
18659;SDS011;9459;50.254;19.014;2022-07-15T14:52:49;1.60;;;0.77;;
18659;SDS011;9459;50.254;19.014;2022-07-15T14:55:18;2.90;;;0.80;;
18659;SDS011;9459;50.254;19.014;2022-07-15T14:57:47;4.22;;;1.20;;
18659;SDS011;9459;50.254;19.014;2022-07-15T15:00:15;3.25;;;1.60;;
18659;SDS011;9459;50.254;19.014;2022-07-15T15:02:44;4.63;;;1.45;;
18659;SDS011;9459;50.254;19.014;2022-07-15T15:05:12;3.70;;;0.90;;
18659;SDS011;9459;50.254;19.014;2022-07-15T15:07:41;2.63;;;0.90;;
18659;SDS011;9459;50.254;19.014;2022-07-15T15:10:09;1.92;;;0.90;;
18659;SDS011;9459;50.254;19.014;2022-07-15T15:12:39;2.90;;;0.60;;
18659;SDS011;9459;50.254;19.014;2022-07-15T15:15:07;1.70;;;0.85;;
18659;SDS011;9459;50.254;19.014;2022-07-15T15:17:36;2.13;;;0.80;;
18659;SDS011;9459;50.254;19.014;2022-07-15T15:22:36;2.95;;;1.20;;
18659;SDS011;9459;50.254;19.014;2022-07-15T15:25:05;1.73;;;0.90;;
18659;SDS011;9459;50.254;19.014;2022-07-15T15:27:35;2.88;;;0.73;;
18659;SDS011;9459;50.254;19.014;2022-07-15T15:30:05;0.98;;;0.63;;
18659;SDS011;9459;50.254;19.014;2022-07-15T15:32:35;3.78;;;1.20;;
18659;SDS011;9459;50.254;19.014;2022-07-15T15:35:04;3.53;;;0.90;;